Time;durP1;ratioP1;P1;durP2;ratioP2;P2;SDS_P1;SDS_P2;PMS_P1;PMS_P2;Temp;Humidity;BMP_temperature;BMP_pressure;BME280_temperature;BME280_humidity;BME280_pressure;Samples;Min_cycle;Max_cycle;Signal;HPM_P1;HPM_P2
2023/09/18 00:00:46;;;;;;;1999.90;999.90;;;17.50;99.90;;;;;;5054875;28;20046;-76
2023/09/18 00:03:11;;;;;;;1999.90;999.90;;;17.60;99.90;;;;;;5054909;28;20521;-76
2023/09/18 00:05:37;;;;;;;1999.90;999.90;;;17.50;99.90;;;;;;5053424;28;20038;-76
2023/09/18 00:08:03;;;;;;;1999.90;999.90;;;17.50;99.90;;;;;;5054583;28;20038;-76
2023/09/18 00:10:30;;;;;;;1999.90;999.90;;;17.50;99.90;;;;;;5054723;28;20064;-76
2023/09/18 00:12:56;;;;;;;1999.90;999.90;;;17.40;99.90;;;;;;5053304;28;20030;-76
2023/09/18 00:15:21;;;;;;;1999.90;999.90;;;17.40;99.90;;;;;;5054628;28;20519;-76
2023/09/18 00:17:47;;;;;;;1999.90;999.90;;;17.40;99.90;;;;;;5053769;28;20033;-76
2023/09/18 00:20:13;;;;;;;1999.90;999.90;;;17.30;99.90;;;;;;5054426;28;20029;-76
2023/09/18 00:22:39;;;;;;;1999.90;999.90;;;17.40;99.90;;;;;;5054938;28;20036;-76
2023/09/18 00:25:05;;;;;;;1999.90;999.90;;;17.30;99.90;;;;;;5054822;28;20383;-76
2023/09/18 00:27:30;;;;;;;1999.90;999.90;;;17.30;99.90;;;;;;5054341;28;20535;-76
2023/09/18 00:29:56;;;;;;;1999.90;999.90;;;17.20;99.90;;;;;;5054321;28;20495;-76
2023/09/18 00:32:21;;;;;;;1999.90;999.90;;;17.30;99.90;;;;;;5054417;28;20065;-76
2023/09/18 00:34:47;;;;;;;1999.90;999.90;;;17.30;99.90;;;;;;5054713;28;20037;-76
2023/09/18 00:37:12;;;;;;;1999.90;999.90;;;17.30;99.90;;;;;;5054158;28;20442;-76
2023/09/18 00:39:38;;;;;;;1999.90;999.90;;;17.30;99.90;;;;;;5052991;28;20124;-75
2023/09/18 00:42:04;;;;;;;1999.90;999.90;;;17.30;99.90;;;;;;5054755;28;20030;-76
2023/09/18 00:44:30;;;;;;;1999.90;999.90;;;17.30;99.90;;;;;;5052917;28;20069;-76
2023/09/18 00:46:56;;;;;;;1999.90;999.90;;;17.30;99.90;;;;;;5054337;28;20044;-76
2023/09/18 00:49:22;;;;;;;1999.90;999.90;;;17.30;99.90;;;;;;5054016;28;20596;-76
2023/09/18 00:51:49;;;;;;;1999.90;999.90;;;17.30;99.90;;;;;;5054552;28;20483;-76
2023/09/18 00:54:18;;;;;;;1999.90;999.90;;;17.30;99.90;;;;;;5054496;28;20033;-76
2023/09/18 00:56:47;;;;;;;1999.90;999.90;;;17.30;99.90;;;;;;5054097;28;20064;-76
2023/09/18 00:59:13;;;;;;;1999.90;999.90;;;17.30;99.90;;;;;;5054126;28;20087;-76
2023/09/18 01:01:41;;;;;;;1999.90;999.90;;;17.20;99.90;;;;;;5053322;28;20399;-75
2023/09/18 01:04:07;;;;;;;1999.90;999.90;;;17.20;99.90;;;;;;5054210;28;20510;-76
2023/09/18 01:06:33;;;;;;;1999.90;999.90;;;17.10;99.90;;;;;;5054005;28;20041;-75
2023/09/18 01:08:59;;;;;;;1999.90;999.90;;;17.10;99.90;;;;;;5054342;28;20044;-76
2023/09/18 01:11:47;;;;;;;1999.90;999.90;;;17.20;99.90;;;;;;5052595;28;20030;-75
2023/09/18 01:14:41;;;;;;;1999.90;999.90;;;17.20;99.90;;;;;;5054476;28;20455;-76
2023/09/18 01:17:10;;;;;;;1999.90;999.90;;;17.20;99.90;;;;;;5040564;28;20041;-76
2023/09/18 01:19:45;;;;;;;1999.90;999.90;;;17.20;99.90;;;;;;5053588;28;20029;-75
2023/09/18 01:22:13;;;;;;;1999.90;999.90;;;17.20;99.90;;;;;;5054317;28;20502;-76
2023/09/18 01:24:39;;;;;;;1999.90;999.90;;;17.30;99.90;;;;;;5054125;28;20037;-76
2023/09/18 01:27:10;;;;;;;1999.90;999.90;;;17.30;99.90;;;;;;5053893;28;20471;-76
2023/09/18 01:29:35;;;;;;;1999.90;999.90;;;17.40;99.90;;;;;;5057456;28;20041;-76
2023/09/18 01:32:01;;;;;;;1999.90;999.90;;;17.50;99.90;;;;;;5056246;28;20479;-76
2023/09/18 01:34:36;;;;;;;1999.90;999.90;;;17.50;99.90;;;;;;5057698;28;20037;-76
2023/09/18 01:37:05;;;;;;;1999.90;999.90;;;17.60;99.90;;;;;;5057370;28;20033;-76
2023/09/18 01:39:32;;;;;;;1999.90;999.90;;;17.60;99.90;;;;;;5056772;28;20451;-76
2023/09/18 01:42:04;;;;;;;1999.90;999.90;;;17.70;99.90;;;;;;5055893;28;20038;-76
2023/09/18 01:44:30;;;;;;;1999.90;999.90;;;17.70;99.90;;;;;;5057457;28;20029;-76
2023/09/18 01:47:01;;;;;;;1999.90;999.90;;;17.80;99.90;;;;;;5056124;28;20049;-76
2023/09/18 01:49:37;;;;;;;1999.90;999.90;;;17.80;99.90;;;;;;5055748;28;20586;-76
2023/09/18 01:52:04;;;;;;;1999.90;999.90;;;18.00;99.90;;;;;;5055985;28;20033;-76
2023/09/18 01:54:30;;;;;;;1999.90;999.90;;;18.00;99.90;;;;;;5057137;28;20056;-76
2023/09/18 01:56:56;;;;;;;1999.90;999.90;;;18.00;99.90;;;;;;5056973;28;20041;-76
2023/09/18 01:59:22;;;;;;;1999.90;999.90;;;18.10;99.90;;;;;;5056649;28;20029;-76
2023/09/18 02:01:49;;;;;;;1999.90;999.90;;;18.10;99.90;;;;;;5057198;28;20083;-76
2023/09/18 02:04:14;;;;;;;1999.90;999.90;;;18.10;99.90;;;;;;5057084;28;20091;-76
2023/09/18 02:06:40;;;;;;;1999.90;999.90;;;18.10;99.90;;;;;;5056443;28;20557;-76
2023/09/18 02:09:09;;;;;;;1999.90;999.90;;;18.10;99.90;;;;;;5057086;28;20045;-76
2023/09/18 02:11:40;;;;;;;1999.90;999.90;;;18.20;99.90;;;;;;5055514;28;20438;-75
2023/09/18 02:14:07;;;;;;;1999.90;999.90;;;18.30;99.90;;;;;;5055641;28;20044;-76
2023/09/18 02:16:35;;;;;;;1999.90;999.90;;;18.30;99.90;;;;;;5056480;28;20124;-76
2023/09/18 02:19:01;;;;;;;1999.90;999.90;;;18.40;99.90;;;;;;5056708;28;20029;-76
2023/09/18 02:21:27;;;;;;;1999.90;999.90;;;18.40;99.90;;;;;;5056801;28;20036;-76
2023/09/18 02:23:54;;;;;;;1999.90;999.90;;;18.40;99.90;;;;;;5056674;28;20036;-76
2023/09/18 02:26:20;;;;;;;1999.90;999.90;;;18.70;99.90;;;;;;5056545;28;20044;-76
2023/09/18 02:28:46;;;;;;;1999.90;999.90;;;18.80;99.90;;;;;;5055260;28;20511;-76
2023/09/18 02:31:11;;;;;;;1999.90;999.90;;;18.90;99.90;;;;;;5056561;28;20081;-76
2023/09/18 02:33:39;;;;;;;1999.90;999.90;;;18.90;99.90;;;;;;5056508;28;20060;-75
2023/09/18 02:36:05;;;;;;;1999.90;999.90;;;18.90;99.90;;;;;;5056256;28;20022;-76
2023/09/18 02:38:30;;;;;;;1999.90;999.90;;;19.10;99.90;;;;;;5054722;28;20033;-76
2023/09/18 02:40:56;;;;;;;1999.90;999.90;;;19.20;99.90;;;;;;5055532;28;20044;-76
2023/09/18 02:43:22;;;;;;;1999.90;999.90;;;19.20;99.90;;;;;;5056248;28;20494;-76
2023/09/18 02:45:48;;;;;;;1999.90;999.90;;;19.10;99.90;;;;;;5055928;28;20041;-76
2023/09/18 02:48:14;;;;;;;1999.90;999.90;;;19.10;99.90;;;;;;5054584;28;20372;-76
2023/09/18 02:50:40;;;;;;;1999.90;999.90;;;19.00;99.90;;;;;;5054679;28;20037;-76
2023/09/18 02:53:06;;;;;;;1999.90;999.90;;;18.80;99.90;;;;;;5056041;28;20053;-76
2023/09/18 02:55:32;;;;;;;1999.90;999.90;;;18.90;99.90;;;;;;5056061;28;20034;-76
2023/09/18 02:57:58;;;;;;;1999.90;999.90;;;18.80;99.90;;;;;;5054231;28;20029;-76
2023/09/18 03:00:24;;;;;;;1999.90;999.90;;;18.80;99.90;;;;;;5055650;28;20092;-76
2023/09/18 03:02:50;;;;;;;1999.90;999.90;;;18.80;99.90;;;;;;5056019;28;20041;-76
2023/09/18 03:05:15;;;;;;;1999.90;999.90;;;18.70;99.90;;;;;;5054418;28;20092;-75
2023/09/18 03:07:41;;;;;;;1999.90;999.90;;;18.60;99.90;;;;;;5055644;28;20040;-76
2023/09/18 03:10:07;;;;;;;1999.90;999.90;;;18.60;99.90;;;;;;5055595;28;20041;-76
2023/09/18 03:12:33;;;;;;;1999.90;999.90;;;18.70;99.90;;;;;;5054192;28;20577;-75
2023/09/18 03:14:59;;;;;;;1999.90;999.90;;;18.60;99.90;;;;;;5055835;28;20053;-75
2023/09/18 03:17:24;;;;;;;1999.90;999.90;;;18.50;99.90;;;;;;5054521;28;20112;-75
2023/09/18 03:19:50;;;;;;;1999.90;999.90;;;18.40;99.90;;;;;;5055461;28;20036;-75
2023/09/18 03:22:16;;;;;;;1999.90;999.90;;;18.40;99.90;;;;;;5055776;28;20089;-76
2023/09/18 03:24:41;;;;;;;1999.90;999.90;;;18.30;99.90;;;;;;5055504;28;20037;-76
2023/09/18 03:27:07;;;;;;;1999.90;999.90;;;18.20;99.90;;;;;;5061548;28;20399;-76
2023/09/18 03:29:32;;;;;;;1999.90;999.90;;;18.10;99.90;;;;;;5066969;28;20041;-76
2023/09/18 03:31:59;;;;;;;1999.90;999.90;;;18.20;99.90;;;;;;5075831;28;20044;-77
2023/09/18 03:34:28;;;;;;;1999.90;999.90;;;18.20;99.90;;;;;;5075913;28;20037;-77
2023/09/18 03:36:53;;;;;;;1999.90;999.90;;;18.20;99.90;;;;;;5075453;28;20490;-77
2023/09/18 03:39:19;;;;;;;1999.90;999.90;;;18.30;99.90;;;;;;5074892;28;20041;-77
2023/09/18 03:41:45;;;;;;;1999.90;999.90;;;18.30;99.90;;;;;;5075822;28;20044;-77
2023/09/18 03:44:11;;;;;;;1999.90;999.90;;;18.30;99.90;;;;;;5075898;28;20127;-77
2023/09/18 03:46:37;;;;;;;1999.90;999.90;;;18.30;99.90;;;;;;5075282;28;20025;-77
2023/09/18 03:49:03;;;;;;;1999.90;999.90;;;18.60;99.90;;;;;;5075321;28;20048;-76
2023/09/18 03:51:29;;;;;;;1999.90;999.90;;;18.50;99.90;;;;;;5073843;28;20032;-76
2023/09/18 03:53:55;;;;;;;1999.90;999.90;;;18.50;99.90;;;;;;5074365;28;20043;-77
2023/09/18 03:56:21;;;;;;;1999.90;999.90;;;18.60;99.90;;;;;;5075625;28;20406;-77
2023/09/18 03:58:49;;;;;;;1999.90;999.90;;;18.60;99.90;;;;;;5075763;28;20092;-77
2023/09/18 04:01:15;;;;;;;1999.90;999.90;;;18.70;99.90;;;;;;5075040;28;20029;-77
2023/09/18 04:03:41;;;;;;;1999.90;999.90;;;18.70;99.90;;;;;;5074048;28;20511;-76
2023/09/18 04:06:07;;;;;;;1999.90;999.90;;;18.70;99.90;;;;;;5075202;28;20033;-76
2023/09/18 04:08:32;;;;;;;1999.90;999.90;;;18.80;99.90;;;;;;5075302;28;20164;-77
2023/09/18 04:10:58;;;;;;;1999.90;999.90;;;18.80;99.90;;;;;;5074890;28;20033;-77
2023/09/18 04:13:24;;;;;;;1999.90;999.90;;;19.00;99.90;;;;;;5075143;28;20056;-77
2023/09/18 04:15:50;;;;;;;1999.90;999.90;;;19.40;99.90;;;;;;5075719;28;20051;-76
2023/09/18 04:18:15;;;;;;;1999.90;999.90;;;19.90;99.90;;;;;;5076359;28;20029;-77
2023/09/18 04:20:41;;;;;;;1999.90;999.90;;;20.20;99.90;;;;;;5075632;28;20029;-77
2023/09/18 04:23:24;;;;;;;1999.90;999.90;;;20.50;99.90;;;;;;5074463;28;20061;-77
2023/09/18 04:25:51;;;;;;;1999.90;999.90;;;20.60;99.90;;;;;;5075483;28;20040;-77
2023/09/18 04:28:19;;;;;;;1999.90;999.90;;;20.70;99.90;;;;;;5075383;28;20490;-77
2023/09/18 04:30:45;;;;;;;1999.90;999.90;;;20.60;99.90;;;;;;5074399;28;20037;-77
2023/09/18 04:33:12;;;;;;;1999.90;999.90;;;20.50;99.90;;;;;;5076071;28;20116;-77
2023/09/18 04:35:39;;;;;;;1999.90;999.90;;;20.50;99.90;;;;;;5074358;28;20048;-77
2023/09/18 04:38:06;;;;;;;1999.90;999.90;;;20.40;99.90;;;;;;5074382;28;20087;-77
2023/09/18 04:40:32;;;;;;;1999.90;999.90;;;20.50;99.90;;;;;;5073118;28;20029;-75
2023/09/18 04:43:01;;;;;;;1999.90;999.90;;;20.50;99.90;;;;;;5073533;28;20037;-77
2023/09/18 04:45:27;;;;;;;1999.90;999.90;;;20.60;99.90;;;;;;5074999;28;20434;-77
2023/09/18 04:47:54;;;;;;;1999.90;999.90;;;20.50;99.90;;;;;;5076617;28;20118;-77
2023/09/18 04:50:19;;;;;;;1999.90;999.90;;;20.30;99.90;;;;;;5076349;28;20044;-78
2023/09/18 04:52:45;;;;;;;1999.90;999.90;;;20.20;99.90;;;;;;5077211;28;20056;-77
2023/09/18 04:55:11;;;;;;;1999.90;999.90;;;20.10;99.90;;;;;;5076472;28;20053;-77
2023/09/18 04:57:37;;;;;;;1999.90;999.90;;;20.00;99.90;;;;;;5075085;28;20025;-77
2023/09/18 05:00:08;;;;;;;1999.90;999.90;;;20.10;99.90;;;;;;5076645;28;20037;-78
2023/09/18 05:02:34;;;;;;;1999.90;999.90;;;19.80;99.90;;;;;;5076645;28;20075;-76
2023/09/18 05:05:00;;;;;;;1999.90;999.90;;;19.30;99.90;;;;;;5076031;28;20066;-78
2023/09/18 05:07:26;;;;;;;1999.90;999.90;;;19.20;99.90;;;;;;5075539;28;20040;-75
2023/09/18 05:09:52;;;;;;;1999.90;999.90;;;19.00;99.90;;;;;;5073956;28;20048;-77
2023/09/18 05:12:17;;;;;;;1999.90;999.90;;;18.80;99.90;;;;;;5076159;28;20033;-78
2023/09/18 05:14:43;;;;;;;1999.90;999.90;;;18.70;99.90;;;;;;5073404;28;20092;-77
2023/09/18 05:17:13;;;;;;;1999.90;999.90;;;18.60;99.90;;;;;;5075839;28;20037;-78
2023/09/18 05:19:39;;;;;;;1999.90;999.90;;;18.50;99.90;;;;;;5079592;28;20053;-78
2023/09/18 05:22:04;;;;;;;1999.90;999.90;;;18.50;99.90;;;;;;5080805;28;20056;-78
2023/09/18 05:24:30;;;;;;;1999.90;999.90;;;18.50;99.90;;;;;;5077336;28;20040;-78
2023/09/18 05:26:56;;;;;;;1999.90;999.90;;;18.40;99.90;;;;;;5075495;28;20372;-78
2023/09/18 05:29:21;;;;;;;1999.90;999.90;;;18.40;99.90;;;;;;5078263;28;20144;-76
2023/09/18 05:31:47;;;;;;;1999.90;999.90;;;18.50;99.90;;;;;;5074456;28;20498;-78
2023/09/18 05:34:12;;;;;;;1999.90;999.90;;;18.40;99.90;;;;;;5079204;28;20486;-79
2023/09/18 05:36:38;;;;;;;1999.90;999.90;;;18.50;99.90;;;;;;5080655;28;20029;-79
2023/09/18 05:39:05;;;;;;;1999.90;999.90;;;18.50;99.90;;;;;;5077991;28;20033;-78
2023/09/18 05:41:31;;;;;;;1999.90;999.90;;;18.40;99.90;;;;;;5076575;28;20037;-77
2023/09/18 05:43:57;;;;;;;1999.90;999.90;;;18.50;99.90;;;;;;5075183;28;20469;-77
2023/09/18 05:46:22;;;;;;;1999.90;999.90;;;18.50;99.90;;;;;;5074577;28;20037;-76
2023/09/18 05:48:48;;;;;;;1999.90;999.90;;;18.50;99.90;;;;;;5074806;28;20747;-78
2023/09/18 05:51:13;;;;;;;1999.90;999.90;;;18.50;99.90;;;;;;5077600;28;20033;-78
2023/09/18 05:53:39;;;;;;;1999.90;999.90;;;18.50;99.90;;;;;;5077398;28;20045;-77
2023/09/18 05:56:04;;;;;;;1999.90;999.90;;;18.60;99.90;;;;;;5077617;28;20040;-79
2023/09/18 05:58:35;;;;;;;1999.90;999.90;;;18.60;99.90;;;;;;5076093;28;20040;-78
2023/09/18 06:01:00;;;;;;;1999.90;999.90;;;18.70;99.90;;;;;;5074882;28;20120;-78
2023/09/18 06:03:27;;;;;;;1999.90;999.90;;;18.70;99.90;;;;;;5075284;28;20120;-78
2023/09/18 06:05:52;;;;;;;1999.90;999.90;;;18.80;99.90;;;;;;5076219;28;20814;-78
2023/09/18 06:08:18;;;;;;;1999.90;999.90;;;19.00;99.90;;;;;;5076940;28;20120;-77
2023/09/18 06:10:45;;;;;;;1999.90;999.90;;;18.80;99.90;;;;;;5076026;28;20025;-78
2023/09/18 06:13:10;;;;;;;1999.90;999.90;;;18.90;99.90;;;;;;5077077;28;20037;-77
2023/09/18 06:15:36;;;;;;;1999.90;999.90;;;18.90;99.90;;;;;;5079256;28;20025;-78
2023/09/18 06:18:03;;;;;;;1999.90;999.90;;;18.90;99.90;;;;;;5078366;28;20036;-78
2023/09/18 06:20:28;;;;;;;1999.90;999.90;;;19.00;99.90;;;;;;5079676;28;20037;-78
2023/09/18 06:22:54;;;;;;;1999.90;999.90;;;19.00;99.90;;;;;;5081005;28;20036;-78
2023/09/18 06:25:20;;;;;;;1999.90;999.90;;;19.20;99.90;;;;;;5078386;28;20363;-78
2023/09/18 06:27:46;;;;;;;1999.90;999.90;;;19.30;99.90;;;;;;5078351;28;20072;-78
2023/09/18 06:30:11;;;;;;;1999.90;999.90;;;19.10;99.90;;;;;;5080666;28;20044;-78
2023/09/18 06:32:37;;;;;;;1999.90;999.90;;;19.20;99.90;;;;;;5078549;28;20044;-75
2023/09/18 06:35:03;;;;;;;1999.90;999.90;;;19.20;99.90;;;;;;5064716;28;20494;-78
2023/09/18 06:37:28;;;;;;;1999.90;999.90;;;19.20;99.90;;;;;;5079139;28;20108;-77
2023/09/18 06:39:56;;;;;;;1999.90;999.90;;;19.40;99.90;;;;;;5074313;28;20112;-76
2023/09/18 06:42:22;;;;;;;1999.90;999.90;;;19.20;99.90;;;;;;5059238;28;20033;-78
2023/09/18 06:44:47;;;;;;;1999.90;999.90;;;19.20;99.90;;;;;;5058781;28;20033;-77
2023/09/18 06:47:14;;;;;;;1999.90;999.90;;;19.30;99.90;;;;;;5055823;28;20535;-78
2023/09/18 06:49:41;;;;;;;1999.90;999.90;;;19.40;99.90;;;;;;5056148;28;20073;-77
2023/09/18 06:52:07;;;;;;;1999.90;999.90;;;19.50;99.90;;;;;;5061357;28;20087;-77
2023/09/18 06:54:33;;;;;;;1999.90;999.90;;;19.70;99.90;;;;;;5078238;28;20040;-77
2023/09/18 06:56:59;;;;;;;1999.90;999.90;;;19.70;99.90;;;;;;5076494;28;20036;-77
2023/09/18 06:59:24;;;;;;;1999.90;999.90;;;19.80;99.90;;;;;;5075420;28;20065;-76
2023/09/18 07:01:50;;;;;;;1999.90;999.90;;;19.90;99.90;;;;;;5081119;22;20525;-80
2023/09/18 07:04:15;;;;;;;1999.90;999.90;;;19.80;99.90;;;;;;5057398;28;20038;-81
2023/09/18 07:06:41;;;;;;;1999.90;999.90;;;19.90;99.90;;;;;;5055481;28;20032;-80
2023/09/18 07:09:06;;;;;;;1999.90;999.90;;;19.90;99.90;;;;;;5055577;28;20048;-80
2023/09/18 07:11:33;;;;;;;1999.90;999.90;;;19.90;99.90;;;;;;5057377;28;20495;-80
2023/09/18 07:13:59;;;;;;;1999.90;999.90;;;19.90;99.90;;;;;;5058017;28;20029;-79
2023/09/18 07:16:25;;;;;;;1999.90;999.90;;;19.90;99.90;;;;;;5057565;28;20486;-76
2023/09/18 07:18:50;;;;;;;1999.90;999.90;;;19.90;99.90;;;;;;5057474;28;20049;-77
2023/09/18 07:21:16;;;;;;;1999.90;999.90;;;19.90;99.90;;;;;;5056586;28;20033;-77
2023/09/18 07:23:42;;;;;;;1999.90;999.90;;;20.10;99.90;;;;;;5055920;28;20029;-75
2023/09/18 07:26:07;;;;;;;1999.90;999.90;;;20.10;99.90;;;;;;5055148;28;20032;-76
2023/09/18 07:28:33;;;;;;;1999.90;999.90;;;20.20;99.90;;;;;;5058936;28;20041;-75
2023/09/18 07:31:08;;;;;;;1999.90;999.90;;;20.20;99.90;;;;;;5075780;28;20367;-75
2023/09/18 07:33:34;;;;;;;1999.90;999.90;;;20.30;99.90;;;;;;5074676;28;20025;-75
2023/09/18 07:36:00;;;;;;;1999.90;999.90;;;20.40;99.90;;;;;;5074114;28;20025;-75
2023/09/18 07:38:26;;;;;;;1999.90;999.90;;;20.40;99.90;;;;;;5074456;28;20414;-75
2023/09/18 07:40:51;;;;;;;1999.90;999.90;;;20.40;99.90;;;;;;5075531;28;20087;-74
2023/09/18 07:43:17;;;;;;;1999.90;999.90;;;20.40;99.90;;;;;;5075670;28;20558;-75
2023/09/18 07:45:43;;;;;;;1999.90;999.90;;;20.50;99.90;;;;;;5075431;28;20033;-75
2023/09/18 07:48:08;;;;;;;1999.90;999.90;;;20.80;99.90;;;;;;5075571;28;20037;-75
2023/09/18 07:50:37;;;;;;;1999.90;999.90;;;21.00;99.90;;;;;;5075583;28;20479;-75
2023/09/18 07:53:02;;;;;;;1999.90;999.90;;;21.20;99.90;;;;;;5075466;28;20025;-75
2023/09/18 07:55:29;;;;;;;1999.90;999.90;;;21.20;99.90;;;;;;5075420;28;20115;-75
2023/09/18 07:57:55;;;;;;;1999.90;999.90;;;21.40;99.90;;;;;;5073906;28;20057;-75
2023/09/18 08:00:22;;;;;;;1999.90;999.90;;;21.40;99.90;;;;;;5073187;28;20145;-74
2023/09/18 08:02:49;;;;;;;1999.90;999.90;;;21.50;99.90;;;;;;5075143;28;20501;-75
2023/09/18 08:05:16;;;;;;;1999.90;999.90;;;21.40;99.90;;;;;;5075163;28;20453;-75
2023/09/18 08:07:41;;;;;;;1999.90;999.90;;;21.20;99.90;;;;;;5075024;28;20033;-75
2023/09/18 08:10:08;;;;;;;1999.90;999.90;;;21.20;99.90;;;;;;5074810;28;20045;-75
2023/09/18 08:12:34;;;;;;;1999.90;999.90;;;21.20;99.90;;;;;;5075298;28;20415;-75
2023/09/18 08:14:59;;;;;;;1999.90;999.90;;;21.10;99.90;;;;;;5075516;28;20048;-75
2023/09/18 08:17:26;;;;;;;1999.90;999.90;;;21.20;99.90;;;;;;5074887;28;20398;-79
2023/09/18 08:19:52;;;;;;;1999.90;999.90;;;21.20;99.90;;;;;;5075012;28;20064;-75
2023/09/18 08:22:19;;;;;;;1999.90;999.90;;;21.40;99.90;;;;;;5075387;28;20035;-75
2023/09/18 08:24:45;;;;;;;1999.90;999.90;;;21.60;99.90;;;;;;5075291;28;20032;-75
2023/09/18 08:27:13;;;;;;;1999.90;999.90;;;21.80;99.90;;;;;;5074891;28;20037;-75
2023/09/18 08:29:38;;;;;;;1999.90;999.90;;;21.90;99.90;;;;;;5075018;28;20040;-76
2023/09/18 08:32:04;;;;;;;1999.90;999.90;;;22.00;99.90;;;;;;5075167;28;20509;-75
2023/09/18 08:34:30;;;;;;;1999.90;999.90;;;22.10;99.90;;;;;;5074619;28;20048;-76
2023/09/18 08:36:55;;;;;;;1999.90;999.90;;;22.10;99.90;;;;;;5074264;28;20037;-76
2023/09/18 08:39:21;;;;;;;1999.90;999.90;;;22.20;99.90;;;;;;5074930;28;20111;-76
2023/09/18 08:41:50;;;;;;;1999.90;999.90;;;22.50;99.90;;;;;;5073431;28;20434;-76
2023/09/18 08:44:17;;;;;;;1999.90;999.90;;;22.60;99.90;;;;;;5073750;28;20417;-76
2023/09/18 08:46:45;;;;;;;1999.90;999.90;;;22.70;99.90;;;;;;5075221;28;20111;-75
2023/09/18 08:49:11;;;;;;;1999.90;999.90;;;22.60;99.90;;;;;;5074618;28;20104;-80
2023/09/18 08:51:38;;;;;;;1999.90;999.90;;;22.70;99.90;;;;;;5074689;28;20033;-77
2023/09/18 08:54:05;;;;;;;1999.90;999.90;;;22.80;99.90;;;;;;5075293;28;20037;-76
2023/09/18 08:56:33;;;;;;;1999.90;999.90;;;22.80;99.90;;;;;;5074560;28;20087;-76
2023/09/18 08:59:00;;;;;;;1999.90;999.90;;;22.80;99.90;;;;;;5076217;28;20040;-77
2023/09/18 09:01:25;;;;;;;1999.90;999.90;;;22.80;99.90;;;;;;5074778;28;20120;-76
2023/09/18 09:03:51;;;;;;;1999.90;999.90;;;22.90;99.90;;;;;;5075158;28;20120;-76
2023/09/18 09:06:17;;;;;;;1999.90;999.90;;;23.20;99.90;;;;;;5074795;28;20034;-76
2023/09/18 09:08:42;;;;;;;1999.90;999.90;;;23.30;99.90;;;;;;5075048;28;20041;-76
2023/09/18 09:11:08;;;;;;;1999.90;999.90;;;23.40;99.90;;;;;;5074846;28;20029;-77
2023/09/18 09:13:34;;;;;;;1999.90;999.90;;;23.40;99.90;;;;;;5074685;28;20029;-78
2023/09/18 09:16:00;;;;;;;1999.90;999.90;;;23.20;99.90;;;;;;5074468;28;20083;-77
2023/09/18 09:18:28;;;;;;;1999.90;999.90;;;23.00;99.90;;;;;;5073349;28;20124;-81
2023/09/18 09:20:57;;;;;;;1999.90;999.90;;;22.80;99.90;;;;;;5074910;28;20382;-78
2023/09/18 09:23:23;;;;;;;1999.90;999.90;;;22.50;99.90;;;;;;5074663;28;20041;-78
2023/09/18 09:25:49;;;;;;;1999.90;999.90;;;22.00;99.90;;;;;;5074315;28;20769;-78
2023/09/18 09:28:16;;;;;;;1999.90;999.90;;;21.30;99.90;;;;;;5074431;28;20029;-78
2023/09/18 09:30:42;;;;;;;1999.90;999.90;;;20.70;99.90;;;;;;5072558;28;20272;-78
2023/09/18 09:33:12;;;;;;;1999.90;999.90;;;20.00;99.90;;;;;;5074559;28;20033;-78
2023/09/18 09:35:38;;;;;;;1999.90;999.90;;;19.50;99.90;;;;;;5073329;28;20410;-77
2023/09/18 09:38:16;;;;;;;1999.90;999.90;;;19.40;99.90;;;;;;5074819;28;20037;-78
2023/09/18 09:40:43;;;;;;;1999.90;999.90;;;19.30;99.90;;;;;;5072306;28;20033;-76
2023/09/18 09:43:13;;;;;;;1999.90;999.90;;;19.20;99.90;;;;;;5074697;28;20485;-76
2023/09/18 09:45:40;;;;;;;1999.90;999.90;;;19.10;99.90;;;;;;5073848;28;20043;-76
2023/09/18 09:48:07;;;;;;;1999.90;999.90;;;19.10;99.90;;;;;;5074398;28;20033;-76
2023/09/18 09:50:46;;;;;;;1999.90;999.90;;;19.00;99.90;;;;;;5077004;28;20498;-77
2023/09/18 09:53:13;;;;;;;1999.90;999.90;;;18.90;99.90;;;;;;5077561;28;20115;-76
2023/09/18 09:55:40;;;;;;;1999.90;999.90;;;18.90;99.90;;;;;;5077358;28;20037;-76
2023/09/18 09:58:10;;;;;;;1999.90;999.90;;;18.80;99.90;;;;;;5077470;28;20100;-77
2023/09/18 10:00:45;;;;;;;1999.90;999.90;;;18.90;99.90;;;;;;5077248;28;20044;-82
2023/09/18 10:03:16;;;;;;;1999.90;999.90;;;19.00;99.90;;;;;;5077310;28;20044;-76
2023/09/18 10:05:44;;;;;;;1999.90;999.90;;;19.10;99.90;;;;;;5077446;28;20108;-78
2023/09/18 10:08:18;;;;;;;1999.90;999.90;;;19.20;99.90;;;;;;5077440;28;20100;-77
2023/09/18 10:10:50;;;;;;;1999.90;999.90;;;19.40;99.90;;;;;;5078156;28;20044;-77
2023/09/18 10:13:27;;;;;;;1999.90;999.90;;;19.30;99.90;;;;;;5076209;28;20118;-78
2023/09/18 10:15:54;;;;;;;1999.90;999.90;;;19.20;99.90;;;;;;5075604;28;20033;-76
2023/09/18 10:18:23;;;;;;;1999.90;999.90;;;19.00;99.90;;;;;;5077111;28;20032;-77
2023/09/18 10:20:52;;;;;;;1999.90;999.90;;;19.20;99.90;;;;;;5076790;28;20025;-77
2023/09/18 10:23:44;;;;;;;1999.90;999.90;;;19.40;99.90;;;;;;5075698;28;20029;-77
2023/09/18 10:26:15;;;;;;;1999.90;999.90;;;19.50;99.90;;;;;;5076975;28;20035;-77
2023/09/18 10:28:44;;;;;;;1999.90;999.90;;;19.80;99.90;;;;;;5071688;28;20044;-77
2023/09/18 10:31:11;;;;;;;1999.90;999.90;;;19.90;99.90;;;;;;5056898;28;20056;-77
2023/09/18 10:33:38;;;;;;;1999.90;999.90;;;19.90;99.90;;;;;;5057020;28;20808;-77
2023/09/18 10:36:05;;;;;;;1999.90;999.90;;;19.90;99.90;;;;;;5056601;28;20088;-77
2023/09/18 10:38:32;;;;;;;1999.90;999.90;;;20.20;99.90;;;;;;5056862;28;20047;-77
2023/09/18 10:40:58;;;;;;;1999.90;999.90;;;20.10;99.90;;;;;;5056450;28;20101;-77
2023/09/18 10:43:24;;;;;;;1999.90;999.90;;;20.10;99.90;;;;;;5056929;28;20446;-77
2023/09/18 10:45:51;;;;;;;1999.90;999.90;;;19.80;99.90;;;;;;5056039;28;20040;-77
2023/09/18 10:48:18;;;;;;;1999.90;999.90;;;19.70;99.90;;;;;;5056881;28;20030;-77
2023/09/18 10:50:45;;;;;;;1999.90;999.90;;;19.60;99.90;;;;;;5057057;28;20040;-80
2023/09/18 10:53:12;;;;;;;1999.90;999.90;;;19.60;99.90;;;;;;5055336;28;20029;-77
2023/09/18 10:55:38;;;;;;;1999.90;999.90;;;19.60;99.90;;;;;;5055120;28;20080;-85
2023/09/18 10:58:04;;;;;;;1999.90;999.90;;;19.50;99.90;;;;;;5055538;28;20030;-78
2023/09/18 11:00:36;;;;;;;1999.90;999.90;;;19.50;99.90;;;;;;5056359;28;20067;-80
2023/09/18 11:03:19;;;;;;;1999.90;999.90;;;19.60;99.90;;;;;;5057875;28;20026;-78
2023/09/18 11:05:46;;;;;;;1999.90;999.90;;;19.50;99.90;;;;;;5054787;28;20041;-75
2023/09/18 11:08:28;;;;;;;1999.90;999.90;;;19.70;99.90;;;;;;5056968;28;20044;-82
2023/09/18 11:11:04;;;;;;;1999.90;999.90;;;19.70;99.90;;;;;;5056551;28;20506;-81
2023/09/18 11:13:37;;;;;;;1999.90;999.90;;;19.80;99.90;;;;;;5056975;28;20087;-80
2023/09/18 11:16:17;;;;;;;1999.90;999.90;;;19.80;99.90;;;;;;5054894;28;20041;-77
2023/09/18 11:18:48;;;;;;;1999.90;999.90;;;19.50;99.90;;;;;;5057297;28;20300;-79
2023/09/18 11:21:17;;;;;;;1999.90;999.90;;;19.50;99.90;;;;;;5056100;28;20557;-74
2023/09/18 11:23:42;;;;;;;1999.90;999.90;;;19.50;99.90;;;;;;5055721;28;20057;-77
2023/09/18 11:26:09;;;;;;;1999.90;999.90;;;19.40;99.90;;;;;;5054285;28;20065;-78
2023/09/18 11:28:37;;;;;;;1999.90;999.90;;;19.30;99.90;;;;;;5056281;28;20034;-80
2023/09/18 11:31:03;;;;;;;1999.90;999.90;;;19.50;99.90;;;;;;5054285;28;20064;-77
2023/09/18 11:33:43;;;;;;;1999.90;999.90;;;19.80;99.90;;;;;;5056012;28;20030;-76
2023/09/18 11:36:14;;;;;;;1999.90;999.90;;;19.90;99.90;;;;;;5054000;28;20084;-74
2023/09/18 11:38:53;;;;;;;1999.90;999.90;;;19.90;99.90;;;;;;5054315;28;20031;-75
2023/09/18 11:41:31;;;;;;;1999.90;999.90;;;20.20;99.90;;;;;;5055664;28;20061;-76
2023/09/18 11:44:18;;;;;;;1999.90;999.90;;;20.20;99.90;;;;;;5055528;28;20025;-75
2023/09/18 11:46:50;;;;;;;1999.90;999.90;;;20.40;99.90;;;;;;5055156;28;20069;-77
2023/09/18 11:49:21;;;;;;;1999.90;999.90;;;20.50;99.90;;;;;;5055447;28;20065;-76
2023/09/18 11:51:47;;;;;;;1999.90;999.90;;;20.50;99.90;;;;;;5055352;28;20025;-75
2023/09/18 11:54:15;;;;;;;1999.90;999.90;;;20.50;99.90;;;;;;5055256;28;20131;-75
2023/09/18 11:56:40;;;;;;;1999.90;999.90;;;20.70;99.90;;;;;;5055112;28;20475;-76
2023/09/18 11:59:10;;;;;;;1999.90;999.90;;;21.00;99.90;;;;;;5055512;28;20029;-75